Time;durP1;ratioP1;P1;durP2;ratioP2;P2;SDS_P1;SDS_P2;PMS_P1;PMS_P2;Temp;Humidity;BMP_temperature;BMP_pressure;BME280_temperature;BME280_humidity;BME280_pressure;Samples;Min_cycle;Max_cycle;Signal;HPM_P1;HPM_P2
2022/01/12 00:00:52;;;;;;;13.95;5.18;;;;;;;;;;5018103;28;20082;-70
2022/01/12 00:03:18;;;;;;;11.02;5.93;;;;;;;;;;5000981;28;20015;-70
2022/01/12 00:05:44;;;;;;;17.10;7.78;;;;;;;;;;5018354;28;20025;-70
2022/01/12 00:08:09;;;;;;;16.33;7.75;;;;;;;;;;5017395;28;20089;-70
2022/01/12 00:10:36;;;;;;;18.48;8.10;;;;;;;;;;5017550;28;20016;-70
2022/01/12 00:13:01;;;;;;;19.85;9.25;;;;;;;;;;5018182;28;20014;-71
2022/01/12 00:15:27;;;;;;;18.25;8.80;;;;;;;;;;5018332;28;20018;-70
2022/01/12 00:17:52;;;;;;;15.10;7.50;;;;;;;;;;5017675;28;20012;-71
2022/01/12 00:20:18;;;;;;;16.55;7.25;;;;;;;;;;5017825;28;20034;-70
2022/01/12 00:22:44;;;;;;;14.57;7.25;;;;;;;;;;5017822;28;20191;-71
2022/01/12 00:33:14;;;;;;;;;;;;;;;;;;5018251;28;20061;-70
2022/01/12 00:35:49;;;;;;;20.42;9.68;;;;;;;;;;5017959;28;19913;-70
2022/01/12 00:38:17;;;;;;;14.73;7.60;;;;;;;;;;5016996;28;20124;-70
2022/01/12 00:40:47;;;;;;;19.23;8.43;;;;;;;;;;5017052;28;20022;-70
2022/01/12 00:43:13;;;;;;;16.25;7.93;;;;;;;;;;5000502;28;20015;-70
2022/01/12 00:45:42;;;;;;;24.17;10.38;;;;;;;;;;5017381;28;20014;-71
2022/01/12 00:48:08;;;;;;;25.27;8.82;;;;;;;;;;5016829;28;20027;-70
2022/01/12 00:50:34;;;;;;;18.17;7.30;;;;;;;;;;5016641;28;20026;-70
2022/01/12 00:52:59;;;;;;;17.73;8.55;;;;;;;;;;5005960;28;20022;-70
2022/01/12 00:55:24;;;;;;;20.48;8.27;;;;;;;;;;5017291;28;20042;-71
2022/01/12 00:57:51;;;;;;;18.98;7.57;;;;;;;;;;5017378;28;20110;-70
2022/01/12 01:00:20;;;;;;;20.75;9.43;;;;;;;;;;5000033;28;20070;-70
2022/01/12 01:02:45;;;;;;;20.35;9.70;;;;;;;;;;5017432;28;20030;-70
2022/01/12 01:05:11;;;;;;;18.38;7.53;;;;;;;;;;5017206;28;21399;-71
2022/01/12 01:07:36;;;;;;;20.10;8.52;;;;;;;;;;5017332;28;20017;-70
2022/01/12 01:10:09;;;;;;;19.67;8.90;;;;;;;;;;5004231;28;20103;-70
2022/01/12 01:12:35;;;;;;;12.60;5.65;;;;;;;;;;5017377;28;20023;-70
2022/01/12 01:15:07;;;;;;;17.60;7.22;;;;;;;;;;4999412;28;20014;-70
2022/01/12 01:25:38;;;;;;;16.15;7.13;;;;;;;;;;5016700;28;20037;-71
2022/01/12 01:28:05;;;;;;;20.02;8.18;;;;;;;;;;5016997;28;20022;-70
2022/01/12 01:30:32;;;;;;;17.35;8.73;;;;;;;;;;4999877;28;20021;-70
2022/01/12 01:33:04;;;;;;;16.60;7.32;;;;;;;;;;5017116;28;20006;-70
2022/01/12 01:35:31;;;;;;;10.20;5.25;;;;;;;;;;5016945;28;20049;-70
2022/01/12 01:38:02;;;;;;;12.20;5.82;;;;;;;;;;5016178;28;20018;-70
2022/01/12 01:40:28;;;;;;;11.52;5.78;;;;;;;;;;5010017;28;20006;-70
2022/01/12 01:43:09;;;;;;;18.08;9.32;;;;;;;;;;5008999;28;20010;-70
2022/01/12 01:53:52;;;;;;;15.93;7.40;;;;;;;;;;5016908;28;20033;-70
2022/01/12 01:56:21;;;;;;;13.88;7.03;;;;;;;;;;5016855;28;20011;-70
2022/01/12 01:58:48;;;;;;;13.50;7.35;;;;;;;;;;5008703;28;20041;-70
2022/01/12 02:01:14;;;;;;;15.40;5.63;;;;;;;;;;5019861;28;20033;-70
2022/01/12 02:03:40;;;;;;;12.10;6.30;;;;;;;;;;5020887;28;20264;-70
2022/01/12 02:06:07;;;;;;;10.55;5.28;;;;;;;;;;5020308;28;20038;-70
2022/01/12 02:08:33;;;;;;;15.82;7.28;;;;;;;;;;5011338;28;20024;-70
2022/01/12 02:10:59;;;;;;;20.42;8.27;;;;;;;;;;5019936;28;20038;-70
2022/01/12 02:13:25;;;;;;;16.08;6.90;;;;;;;;;;5020241;28;20074;-70
2022/01/12 02:15:52;;;;;;;16.65;6.65;;;;;;;;;;5019614;28;20014;-70
2022/01/12 02:40:16;;;;;;;;;;;;;;;;;;5019859;28;20054;-70
2022/01/12 02:42:45;;;;;;;10.18;5.05;;;;;;;;;;5019197;28;19905;-70
2022/01/12 02:50:53;;;;;;;13.32;4.90;;;;;;;;;;5019085;28;19916;-70
2022/01/12 02:56:03;;;;;;;8.57;3.75;;;;;;;;;;5019555;28;20026;-70
2022/01/12 02:58:28;;;;;;;8.77;4.53;;;;;;;;;;5019496;28;20025;-70
2022/01/12 03:03:24;;;;;;;11.05;5.47;;;;;;;;;;5019471;28;20037;-70
2022/01/12 03:05:59;;;;;;;11.90;5.40;;;;;;;;;;5019023;28;20041;-71
2022/01/12 03:08:26;;;;;;;12.55;4.93;;;;;;;;;;5019216;28;20025;-70
2022/01/12 03:10:52;;;;;;;9.65;5.50;;;;;;;;;;5018146;28;20061;-70
2022/01/12 03:13:18;;;;;;;10.13;4.15;;;;;;;;;;5019556;28;20074;-70
2022/01/12 03:15:47;;;;;;;13.20;6.47;;;;;;;;;;5019488;28;20041;-70
2022/01/12 03:18:12;;;;;;;11.23;5.88;;;;;;;;;;5018000;28;20049;-70
2022/01/12 03:20:38;;;;;;;14.48;6.35;;;;;;;;;;5018409;28;20014;-70
2022/01/12 03:23:04;;;;;;;11.57;5.57;;;;;;;;;;5019110;28;20015;-70
2022/01/12 03:25:29;;;;;;;13.88;6.43;;;;;;;;;;5018961;28;20045;-71
2022/01/12 03:27:59;;;;;;;18.95;8.27;;;;;;;;;;5031081;28;20019;-70
2022/01/12 03:30:25;;;;;;;9.82;4.88;;;;;;;;;;5018640;28;20022;-71
2022/01/12 03:33:02;;;;;;;13.02;5.93;;;;;;;;;;5018747;28;20018;-70
2022/01/12 03:35:47;;;;;;;15.85;6.75;;;;;;;;;;5018729;28;20024;-69
2022/01/12 03:38:21;;;;;;;12.27;5.85;;;;;;;;;;5012365;28;20026;-70
2022/01/12 03:40:48;;;;;;;17.13;6.60;;;;;;;;;;5000863;28;20034;-70
2022/01/12 03:43:15;;;;;;;12.90;6.70;;;;;;;;;;5001563;28;20017;-70
2022/01/12 03:45:41;;;;;;;19.73;7.45;;;;;;;;;;5001664;28;20042;-71
2022/01/12 03:48:06;;;;;;;15.18;6.35;;;;;;;;;;5018107;28;20086;-70
2022/01/12 03:50:32;;;;;;;13.15;6.47;;;;;;;;;;5018197;28;20006;-70
2022/01/12 03:52:57;;;;;;;10.68;5.95;;;;;;;;;;5018563;28;20022;-70
2022/01/12 03:55:22;;;;;;;12.23;5.70;;;;;;;;;;5018092;28;20037;-70
2022/01/12 03:57:48;;;;;;;12.38;5.22;;;;;;;;;;5033822;28;20026;-70
2022/01/12 04:00:14;;;;;;;10.77;5.47;;;;;;;;;;5000962;28;20014;-69
2022/01/12 04:02:40;;;;;;;17.05;7.18;;;;;;;;;;5018314;28;20022;-70
2022/01/12 04:10:17;;;;;;;17.08;6.60;;;;;;;;;;5017763;28;20075;-70
2022/01/12 04:12:42;;;;;;;17.30;7.47;;;;;;;;;;5017991;28;20014;-70
2022/01/12 04:15:08;;;;;;;14.52;6.25;;;;;;;;;;5018495;28;20026;-70
2022/01/12 04:17:33;;;;;;;18.95;6.43;;;;;;;;;;5018098;28;20026;-70
2022/01/12 04:20:01;;;;;;;16.25;7.40;;;;;;;;;;5017848;28;20033;-70
2022/01/12 04:25:11;;;;;;;14.75;7.47;;;;;;;;;;5018442;28;20029;-70
2022/01/12 04:27:37;;;;;;;14.73;7.07;;;;;;;;;;5017879;28;20010;-70
2022/01/12 04:30:04;;;;;;;14.93;5.60;;;;;;;;;;5000552;28;20014;-71
2022/01/12 04:32:30;;;;;;;16.08;7.63;;;;;;;;;;5017802;28;20022;-70
2022/01/12 04:34:59;;;;;;;17.75;7.03;;;;;;;;;;5017192;28;20010;-69
2022/01/12 04:37:25;;;;;;;17.77;6.85;;;;;;;;;;5017227;28;20017;-70
2022/01/12 04:39:50;;;;;;;15.35;6.40;;;;;;;;;;5017443;28;20044;-70
2022/01/12 04:42:16;;;;;;;14.40;6.35;;;;;;;;;;5018239;28;20031;-70
2022/01/12 04:44:45;;;;;;;9.55;4.82;;;;;;;;;;5019237;28;20049;-70
2022/01/12 04:47:17;;;;;;;17.10;7.05;;;;;;;;;;5017119;28;20022;-70
2022/01/12 04:52:10;;;;;;;19.40;8.73;;;;;;;;;;5016725;28;20042;-69
2022/01/12 04:54:36;;;;;;;18.38;7.25;;;;;;;;;;5017278;28;20025;-70
2022/01/12 04:57:02;;;;;;;21.77;7.45;;;;;;;;;;5017244;28;20026;-69
2022/01/12 04:59:28;;;;;;;17.95;7.65;;;;;;;;;;5017554;28;20015;-70
2022/01/12 05:01:58;;;;;;;22.00;8.30;;;;;;;;;;5017873;28;20081;-70
2022/01/12 05:07:30;;;;;;;12.98;6.20;;;;;;;;;;5016920;28;20041;-69
2022/01/12 05:12:48;;;;;;;9.07;4.47;;;;;;;;;;5019958;28;20036;-69
2022/01/12 05:15:19;;;;;;;18.58;7.35;;;;;;;;;;5016636;28;20015;-69
2022/01/12 05:17:44;;;;;;;11.70;6.88;;;;;;;;;;5016411;28;20034;-70
2022/01/12 05:20:10;;;;;;;10.77;5.60;;;;;;;;;;5017019;28;20045;-71
2022/01/12 05:22:35;;;;;;;14.15;5.45;;;;;;;;;;5015142;28;20018;-70
2022/01/12 05:25:01;;;;;;;17.05;7.30;;;;;;;;;;5016438;28;20014;-72
2022/01/12 05:27:26;;;;;;;16.88;6.88;;;;;;;;;;5017669;28;20046;-71
2022/01/12 05:29:51;;;;;;;20.52;8.48;;;;;;;;;;5017192;28;20014;-70
2022/01/12 05:32:17;;;;;;;15.35;6.50;;;;;;;;;;5016896;28;20014;-70
2022/01/12 05:34:43;;;;;;;20.20;9.00;;;;;;;;;;5019891;28;20014;-72
2022/01/12 05:37:09;;;;;;;16.58;7.28;;;;;;;;;;5021037;28;20044;-72
2022/01/12 05:39:34;;;;;;;15.82;6.40;;;;;;;;;;5021260;28;20026;-71
2022/01/12 05:41:59;;;;;;;16.48;7.65;;;;;;;;;;5020622;28;20030;-70
2022/01/12 05:44:25;;;;;;;17.80;7.38;;;;;;;;;;5021392;28;20034;-72
2022/01/12 05:46:51;;;;;;;17.35;8.48;;;;;;;;;;5020971;28;20030;-71
2022/01/12 05:49:35;;;;;;;21.48;8.48;;;;;;;;;;5003472;28;20010;-70
2022/01/12 05:52:01;;;;;;;18.00;8.57;;;;;;;;;;5020785;28;20030;-71
2022/01/12 05:54:26;;;;;;;27.00;10.48;;;;;;;;;;5021014;28;20014;-72
2022/01/12 05:56:52;;;;;;;24.08;9.73;;;;;;;;;;5020513;28;20007;-71
2022/01/12 05:59:18;;;;;;;25.17;10.00;;;;;;;;;;5020555;28;20050;-72
2022/01/12 06:01:43;;;;;;;17.95;7.53;;;;;;;;;;5020944;28;20018;-71
2022/01/12 06:04:09;;;;;;;20.05;9.05;;;;;;;;;;5019681;28;20014;-69
2022/01/12 06:06:34;;;;;;;15.80;6.60;;;;;;;;;;5003078;28;20045;-72
2022/01/12 06:08:59;;;;;;;14.50;6.75;;;;;;;;;;5003275;28;20046;-72
2022/01/12 06:11:25;;;;;;;15.27;6.93;;;;;;;;;;5020534;28;20023;-73
2022/01/12 06:13:52;;;;;;;20.27;9.30;;;;;;;;;;5020467;28;20025;-71
2022/01/12 06:16:17;;;;;;;24.63;8.18;;;;;;;;;;5012557;28;20006;-71
2022/01/12 06:18:42;;;;;;;23.20;8.88;;;;;;;;;;5020611;28;20021;-71
2022/01/12 06:21:08;;;;;;;22.83;9.40;;;;;;;;;;5019976;28;20040;-72
2022/01/12 06:23:33;;;;;;;17.25;6.70;;;;;;;;;;5020663;28;20030;-71
2022/01/12 06:25:59;;;;;;;24.10;9.80;;;;;;;;;;5020127;28;20014;-72
2022/01/12 06:28:37;;;;;;;20.13;9.27;;;;;;;;;;5020369;28;20020;-71
2022/01/12 06:31:13;;;;;;;21.20;9.98;;;;;;;;;;5020251;28;20078;-71
2022/01/12 06:33:44;;;;;;;18.80;7.82;;;;;;;;;;5019700;28;20020;-72
2022/01/12 06:36:15;;;;;;;23.67;8.85;;;;;;;;;;5035293;28;20034;-72
2022/01/12 06:38:40;;;;;;;22.88;8.63;;;;;;;;;;5020378;28;20138;-72
2022/01/12 06:41:06;;;;;;;17.55;8.30;;;;;;;;;;5029523;28;20050;-72
2022/01/12 06:43:32;;;;;;;27.73;10.73;;;;;;;;;;4999846;28;20022;-72
2022/01/12 06:45:58;;;;;;;24.27;9.93;;;;;;;;;;4999367;28;20070;-72
2022/01/12 06:48:23;;;;;;;19.08;9.63;;;;;;;;;;4999898;28;20022;-71
2022/01/12 06:50:49;;;;;;;18.77;8.40;;;;;;;;;;4993339;28;20025;-72
2022/01/12 06:53:14;;;;;;;18.35;7.47;;;;;;;;;;5000534;28;20026;-71
2022/01/12 06:55:40;;;;;;;16.85;7.88;;;;;;;;;;5000641;28;20057;-71
2022/01/12 06:58:05;;;;;;;16.85;6.00;;;;;;;;;;4983886;28;20014;-71
2022/01/12 07:00:31;;;;;;;19.85;7.78;;;;;;;;;;5000615;28;20014;-71
2022/01/12 07:02:56;;;;;;;18.15;8.45;;;;;;;;;;5000360;28;20015;-72
2022/01/12 07:05:21;;;;;;;21.63;7.97;;;;;;;;;;5000268;28;20014;-71
2022/01/12 07:07:47;;;;;;;18.17;7.78;;;;;;;;;;5000177;28;20349;-71
2022/01/12 07:10:12;;;;;;;20.77;8.48;;;;;;;;;;5000291;28;20019;-70
2022/01/12 07:12:37;;;;;;;23.65;9.13;;;;;;;;;;5000220;28;20021;-71
2022/01/12 07:15:03;;;;;;;15.75;7.20;;;;;;;;;;5000194;28;20025;-72
2022/01/12 07:17:29;;;;;;;17.55;8.55;;;;;;;;;;5000203;28;20026;-72
2022/01/12 07:19:54;;;;;;;15.73;7.60;;;;;;;;;;5000102;28;20014;-71
2022/01/12 07:22:19;;;;;;;19.77;8.93;;;;;;;;;;4999297;28;20022;-70
2022/01/12 07:24:45;;;;;;;20.63;9.32;;;;;;;;;;4999515;28;20089;-71
2022/01/12 07:27:10;;;;;;;20.30;8.70;;;;;;;;;;4999998;28;20027;-71
2022/01/12 07:29:35;;;;;;;21.13;8.90;;;;;;;;;;4999454;28;20082;-72
2022/01/12 07:32:01;;;;;;;19.50;8.77;;;;;;;;;;4999581;28;20042;-71
2022/01/12 07:34:26;;;;;;;17.08;8.10;;;;;;;;;;4998903;28;20030;-70
2022/01/12 07:36:52;;;;;;;16.42;7.55;;;;;;;;;;4999817;28;20026;-71
2022/01/12 07:39:17;;;;;;;17.42;6.70;;;;;;;;;;4999105;28;20041;-71
2022/01/12 07:41:43;;;;;;;17.73;7.85;;;;;;;;;;5006375;28;20034;-72
2022/01/12 07:44:09;;;;;;;12.38;7.07;;;;;;;;;;4999114;28;20018;-71
2022/01/12 07:46:34;;;;;;;19.30;8.20;;;;;;;;;;4999099;28;20029;-71
2022/01/12 07:49:00;;;;;;;15.32;6.95;;;;;;;;;;4999100;28;20126;-71
2022/01/12 07:51:25;;;;;;;18.67;7.68;;;;;;;;;;4981527;28;20011;-73
2022/01/12 07:53:51;;;;;;;16.15;7.20;;;;;;;;;;4999079;28;20015;-72
2022/01/12 07:56:16;;;;;;;17.73;7.72;;;;;;;;;;4999272;28;20134;-72
2022/01/12 07:58:41;;;;;;;14.52;7.05;;;;;;;;;;4997962;28;20030;-72
2022/01/12 08:01:07;;;;;;;16.30;7.00;;;;;;;;;;4998175;28;20071;-71
2022/01/12 08:03:33;;;;;;;17.67;6.60;;;;;;;;;;4998868;28;20010;-71
2022/01/12 08:06:00;;;;;;;17.60;7.60;;;;;;;;;;4981693;28;20028;-71
2022/01/12 08:08:25;;;;;;;16.38;6.65;;;;;;;;;;4999217;28;20074;-72
2022/01/12 08:10:51;;;;;;;13.63;6.65;;;;;;;;;;4997626;28;20095;-72
2022/01/12 08:13:16;;;;;;;8.32;4.20;;;;;;;;;;4998456;28;20074;-72
2022/01/12 08:15:43;;;;;;;9.13;4.30;;;;;;;;;;4997345;28;20307;-71
2022/01/12 08:18:08;;;;;;;15.20;6.57;;;;;;;;;;4978438;29;20328;-73
2022/01/12 08:20:34;;;;;;;13.82;6.45;;;;;;;;;;4978868;29;20019;-74
2022/01/12 08:23:00;;;;;;;14.88;6.43;;;;;;;;;;4981779;28;20026;-73
2022/01/12 08:25:25;;;;;;;8.77;4.10;;;;;;;;;;4998754;28;20015;-74
2022/01/12 08:27:51;;;;;;;13.20;6.43;;;;;;;;;;4981770;28;20022;-73
2022/01/12 08:30:19;;;;;;;7.60;3.95;;;;;;;;;;4997892;28;20018;-71
2022/01/12 08:32:46;;;;;;;13.70;6.38;;;;;;;;;;4996752;28;20023;-71
2022/01/12 08:35:12;;;;;;;15.70;5.35;;;;;;;;;;4998171;28;20020;-72
2022/01/12 08:37:38;;;;;;;12.93;5.95;;;;;;;;;;4998068;28;20034;-70
2022/01/12 08:40:04;;;;;;;13.60;6.18;;;;;;;;;;5012513;28;20015;-72
2022/01/12 08:42:30;;;;;;;11.48;6.20;;;;;;;;;;4986368;28;20027;-72
2022/01/12 08:44:59;;;;;;;15.00;7.07;;;;;;;;;;4980335;28;20026;-72
2022/01/12 08:47:25;;;;;;;16.25;6.88;;;;;;;;;;4997468;28;20015;-72
2022/01/12 08:49:51;;;;;;;13.15;5.72;;;;;;;;;;4997016;28;20046;-72
2022/01/12 08:52:16;;;;;;;16.65;7.55;;;;;;;;;;4997902;28;20019;-71
2022/01/12 08:54:42;;;;;;;17.73;6.85;;;;;;;;;;4998409;28;20026;-71
2022/01/12 08:57:08;;;;;;;17.58;8.60;;;;;;;;;;4998514;28;20023;-72
2022/01/12 08:59:33;;;;;;;16.90;7.00;;;;;;;;;;4998487;28;20025;-72
2022/01/12 09:01:59;;;;;;;18.25;7.82;;;;;;;;;;4998553;28;20023;-72
2022/01/12 09:04:26;;;;;;;18.63;7.47;;;;;;;;;;4998402;28;20033;-72
2022/01/12 09:06:52;;;;;;;14.13;6.68;;;;;;;;;;4998395;28;20007;-72
2022/01/12 09:09:18;;;;;;;15.73;6.97;;;;;;;;;;4999970;28;20039;-71
2022/01/12 09:11:43;;;;;;;16.33;6.45;;;;;;;;;;5002410;28;20089;-72
2022/01/12 09:14:09;;;;;;;17.17;6.63;;;;;;;;;;5002435;28;20082;-72
2022/01/12 09:16:35;;;;;;;14.93;6.57;;;;;;;;;;5002336;28;20022;-71
2022/01/12 09:19:00;;;;;;;12.63;5.82;;;;;;;;;;4985460;28;20116;-71
2022/01/12 09:21:28;;;;;;;12.77;5.85;;;;;;;;;;5002262;28;20055;-71
2022/01/12 09:23:53;;;;;;;13.90;5.88;;;;;;;;;;5002219;28;20014;-70
2022/01/12 09:26:18;;;;;;;15.35;6.35;;;;;;;;;;5002107;28;20010;-70
2022/01/12 09:28:45;;;;;;;16.77;6.53;;;;;;;;;;5002121;28;20011;-69
2022/01/12 09:31:11;;;;;;;12.98;5.78;;;;;;;;;;4985304;28;20018;-72
2022/01/12 09:33:37;;;;;;;15.55;6.20;;;;;;;;;;5002013;28;20062;-71
2022/01/12 09:36:03;;;;;;;13.45;6.32;;;;;;;;;;5001965;28;20031;-71
2022/01/12 09:38:28;;;;;;;14.00;5.90;;;;;;;;;;5001774;28;20082;-72
2022/01/12 09:40:54;;;;;;;9.68;4.68;;;;;;;;;;4989041;28;20268;-72
2022/01/12 09:43:24;;;;;;;13.65;5.93;;;;;;;;;;5004437;28;20174;-72
2022/01/12 09:45:51;;;;;;;13.35;6.90;;;;;;;;;;5021343;28;20021;-69
2022/01/12 09:48:19;;;;;;;11.80;5.20;;;;;;;;;;5004406;28;20006;-71
2022/01/12 09:50:45;;;;;;;15.23;5.88;;;;;;;;;;5021322;28;20022;-72
2022/01/12 09:53:11;;;;;;;14.75;6.00;;;;;;;;;;5021294;28;20011;-72
2022/01/12 09:55:36;;;;;;;10.55;5.80;;;;;;;;;;5019939;28;20030;-71
2022/01/12 09:58:02;;;;;;;10.82;6.22;;;;;;;;;;5019398;28;20026;-71
2022/01/12 10:00:28;;;;;;;14.35;6.95;;;;;;;;;;5003488;28;20030;-71
2022/01/12 10:02:56;;;;;;;18.17;6.10;;;;;;;;;;5020023;28;20010;-71
2022/01/12 10:05:29;;;;;;;12.73;6.18;;;;;;;;;;5020328;28;20022;-71
2022/01/12 10:08:06;;;;;;;6.20;3.90;;;;;;;;;;5020295;28;20086;-71
2022/01/12 10:10:31;;;;;;;10.80;5.15;;;;;;;;;;5012022;28;20018;-71
2022/01/12 10:12:58;;;;;;;11.55;5.13;;;;;;;;;;4997463;28;20011;-71
2022/01/12 10:15:28;;;;;;;9.85;4.97;;;;;;;;;;5008526;28;20022;-71
2022/01/12 10:18:00;;;;;;;11.13;4.90;;;;;;;;;;5020484;28;20025;-71
2022/01/12 10:20:26;;;;;;;12.53;5.07;;;;;;;;;;5002659;28;20029;-72
2022/01/12 10:23:02;;;;;;;10.45;4.60;;;;;;;;;;5020602;28;20066;-72
2022/01/12 10:25:30;;;;;;;15.27;5.90;;;;;;;;;;5020462;28;20007;-71
2022/01/12 10:27:57;;;;;;;11.95;6.05;;;;;;;;;;5020297;28;20104;-72
2022/01/12 10:30:24;;;;;;;12.80;5.72;;;;;;;;;;5020556;28;20050;-71
2022/01/12 10:33:03;;;;;;;10.60;5.18;;;;;;;;;;5020421;28;20019;-72
2022/01/12 10:35:30;;;;;;;12.50;5.30;;;;;;;;;;5020299;28;20118;-72
2022/01/12 10:38:10;;;;;;;14.75;5.32;;;;;;;;;;5015393;28;20011;-71
2022/01/12 10:40:52;;;;;;;10.68;5.13;;;;;;;;;;5000546;28;20023;-71
2022/01/12 10:43:38;;;;;;;8.77;4.40;;;;;;;;;;5011575;28;20022;-71
2022/01/12 10:46:12;;;;;;;11.75;5.03;;;;;;;;;;5019360;28;20085;-71
2022/01/12 10:48:41;;;;;;;10.68;4.88;;;;;;;;;;5015475;28;20034;-71
2022/01/12 10:51:07;;;;;;;10.60;4.55;;;;;;;;;;5019456;28;20082;-71
2022/01/12 10:53:34;;;;;;;11.50;5.28;;;;;;;;;;5019123;28;20010;-72
2022/01/12 10:56:20;;;;;;;10.93;4.72;;;;;;;;;;5019736;28;20022;-71
2022/01/12 10:58:49;;;;;;;13.63;5.68;;;;;;;;;;5020056;28;20057;-71
2022/01/12 11:01:17;;;;;;;16.42;5.72;;;;;;;;;;5019692;28;20018;-70
2022/01/12 11:03:43;;;;;;;11.15;4.75;;;;;;;;;;5018672;28;20045;-71
2022/01/12 11:06:09;;;;;;;10.70;4.72;;;;;;;;;;5019596;28;20026;-70
2022/01/12 11:08:37;;;;;;;9.45;4.75;;;;;;;;;;5003120;28;20082;-71
2022/01/12 11:11:03;;;;;;;13.68;5.90;;;;;;;;;;5019566;28;20022;-72
2022/01/12 11:13:30;;;;;;;8.00;4.55;;;;;;;;;;5019733;28;20041;-72
2022/01/12 11:15:56;;;;;;;11.23;6.18;;;;;;;;;;4993269;28;20029;-71
2022/01/12 11:18:27;;;;;;;11.07;4.47;;;;;;;;;;5016306;28;20018;-70
2022/01/12 11:20:59;;;;;;;14.05;4.97;;;;;;;;;;5020225;28;20014;-74
2022/01/12 11:23:34;;;;;;;11.95;5.22;;;;;;;;;;5017294;28;20041;-71
2022/01/12 11:26:10;;;;;;;11.88;4.90;;;;;;;;;;5022671;28;20029;-72
2022/01/12 11:28:38;;;;;;;9.90;4.68;;;;;;;;;;5021065;28;20010;-74
2022/01/12 11:31:04;;;;;;;12.65;5.57;;;;;;;;;;5018839;28;20018;-71
2022/01/12 11:33:30;;;;;;;9.93;4.63;;;;;;;;;;5018365;28;20033;-72
2022/01/12 11:35:59;;;;;;;11.02;4.97;;;;;;;;;;5018022;28;20022;-71
2022/01/12 11:38:34;;;;;;;13.35;5.43;;;;;;;;;;5018253;28;20087;-71
2022/01/12 11:41:15;;;;;;;8.88;4.30;;;;;;;;;;5017261;28;20030;-71
2022/01/12 11:43:43;;;;;;;9.55;5.05;;;;;;;;;;5015934;28;20034;-70
2022/01/12 11:46:14;;;;;;;12.57;4.97;;;;;;;;;;5020367;28;20287;-71
2022/01/12 11:48:49;;;;;;;7.38;4.72;;;;;;;;;;5025379;28;20020;-72
2022/01/12 11:51:18;;;;;;;8.73;4.50;;;;;;;;;;5006649;28;20014;-71
2022/01/12 11:53:49;;;;;;;12.00;5.00;;;;;;;;;;5030443;28;20018;-73
2022/01/12 11:56:24;;;;;;;8.60;4.40;;;;;;;;;;5018596;28;20006;-73
2022/01/12 11:58:59;;;;;;;10.52;4.97;;;;;;;;;;5011315;28;20168;-72
2022/01/12 12:01:40;;;;;;;9.68;4.07;;;;;;;;;;5016761;28;20050;-73
2022/01/12 12:04:08;;;;;;;9.38;5.10;;;;;;;;;;5025588;28;20010;-71
2022/01/12 12:06:34;;;;;;;7.25;3.78;;;;;;;;;;5003273;28;20022;-71
2022/01/12 12:09:00;;;;;;;7.20;4.15;;;;;;;;;;5026326;28;20052;-73
2022/01/12 12:11:28;;;;;;;6.47;3.58;;;;;;;;;;5018580;28;20244;-71
2022/01/12 12:13:58;;;;;;;9.18;4.00;;;;;;;;;;5015431;28;20014;-72
2022/01/12 12:16:24;;;;;;;11.65;3.08;;;;;;;;;;5018464;28;20010;-71
2022/01/12 12:18:50;;;;;;;9.63;2.08;;;;;;;;;;5018201;28;20010;-72
2022/01/12 12:21:15;;;;;;;14.00;4.65;;;;;;;;;;5012230;28;20018;-70
2022/01/12 12:23:41;;;;;;;9.73;4.05;;;;;;;;;;5017384;28;20014;-72
2022/01/12 12:26:08;;;;;;;6.50;2.95;;;;;;;;;;5017286;28;20021;-70
2022/01/12 12:28:34;;;;;;;9.93;3.60;;;;;;;;;;5025223;28;20024;-72
2022/01/12 12:30:59;;;;;;;9.77;3.00;;;;;;;;;;5017503;28;20042;-71
2022/01/12 12:33:25;;;;;;;5.75;3.00;;;;;;;;;;5017757;28;20018;-72
2022/01/12 12:35:50;;;;;;;10.68;3.40;;;;;;;;;;5017487;28;20022;-70
2022/01/12 12:38:19;;;;;;;7.28;3.72;;;;;;;;;;5017374;28;20033;-70
2022/01/12 12:40:47;;;;;;;8.40;3.40;;;;;;;;;;5025005;28;20034;-71
2022/01/12 12:43:21;;;;;;;5.47;2.50;;;;;;;;;;5021887;28;20021;-72
2022/01/12 12:45:54;;;;;;;;;;;;;;;;;;5018183;28;20018;-72
2022/01/12 12:48:24;;;;;;;6.65;2.60;;;;;;;;;;5016158;28;19913;-72
2022/01/12 12:50:59;;;;;;;8.32;3.05;;;;;;;;;;5015915;28;20081;-72
2022/01/12 12:53:29;;;;;;;7.75;3.17;;;;;;;;;;5017142;28;20029;-71
2022/01/12 12:55:55;;;;;;;7.53;3.17;;;;;;;;;;5017404;28;20103;-71
2022/01/12 12:58:25;;;;;;;4.00;2.10;;;;;;;;;;5016844;28;20018;-70
2022/01/12 13:00:50;;;;;;;7.53;2.65;;;;;;;;;;5016253;28;20026;-71
2022/01/12 13:03:16;;;;;;;5.70;2.45;;;;;;;;;;4999819;28;20041;-71
2022/01/12 13:05:42;;;;;;;8.95;2.58;;;;;;;;;;5017124;28;20022;-71
2022/01/12 13:08:08;;;;;;;8.32;2.75;;;;;;;;;;5016516;28;20172;-71
2022/01/12 13:10:35;;;;;;;6.70;2.40;;;;;;;;;;4994853;28;20006;-72
2022/01/12 13:13:09;;;;;;;3.97;1.77;;;;;;;;;;5000074;28;20031;-72
2022/01/12 13:15:40;;;;;;;7.15;2.58;;;;;;;;;;5016717;28;20015;-72
2022/01/12 13:18:13;;;;;;;9.20;2.85;;;;;;;;;;5015698;28;20010;-72
2022/01/12 13:23:28;;;;;;;3.33;1.73;;;;;;;;;;5016910;28;20053;-71
2022/01/12 13:25:56;;;;;;;7.03;2.22;;;;;;;;;;5016897;28;20015;-72
2022/01/12 13:28:22;;;;;;;13.13;4.07;;;;;;;;;;5017020;28;20095;-72
2022/01/12 13:30:57;;;;;;;5.97;2.70;;;;;;;;;;5033520;28;20018;-72
2022/01/12 13:33:43;;;;;;;7.55;3.35;;;;;;;;;;5017575;28;20010;-70
2022/01/12 13:36:18;;;;;;;9.77;2.60;;;;;;;;;;5017954;28;20260;-72
2022/01/12 13:38:48;;;;;;;6.50;2.33;;;;;;;;;;5000838;28;20082;-72
2022/01/12 13:41:22;;;;;;;5.10;2.40;;;;;;;;;;5017287;28;20018;-72
2022/01/12 13:43:54;;;;;;;4.25;1.73;;;;;;;;;;5017110;28;20042;-72
2022/01/12 13:46:28;;;;;;;11.75;2.47;;;;;;;;;;5017619;28;20040;-72
2022/01/12 13:52:03;;;;;;;6.53;2.15;;;;;;;;;;5006074;28;20029;-74
2022/01/12 13:55:07;;;;;;;9.63;2.10;;;;;;;;;;5017568;28;20310;-71
2022/01/12 13:57:32;;;;;;;7.80;2.22;;;;;;;;;;5003689;28;20050;-72
2022/01/12 13:59:57;;;;;;;4.70;2.13;;;;;;;;;;5036937;28;20017;-71
2022/01/12 14:02:25;;;;;;;4.50;2.10;;;;;;;;;;5021089;28;20070;-71
2022/01/12 14:05:05;;;;;;;5.47;2.22;;;;;;;;;;5020909;28;20031;-73
2022/01/12 14:07:35;;;;;;;9.15;2.50;;;;;;;;;;5021051;28;20026;-73
2022/01/12 14:10:02;;;;;;;4.20;2.30;;;;;;;;;;5020158;28;20069;-72
2022/01/12 14:12:28;;;;;;;7.70;1.83;;;;;;;;;;5019486;28;20014;-72
2022/01/12 14:15:03;;;;;;;10.77;2.10;;;;;;;;;;5020783;28;20045;-71
2022/01/12 14:17:39;;;;;;;5.22;2.13;;;;;;;;;;5020062;28;20014;-73
2022/01/12 14:20:23;;;;;;;4.03;0.98;;;;;;;;;;5010385;28;20006;-73
2022/01/12 14:23:08;;;;;;;11.30;1.95;;;;;;;;;;5020746;28;20019;-71
2022/01/12 14:25:40;;;;;;;10.95;1.58;;;;;;;;;;5020665;28;20018;-71
2022/01/12 14:28:07;;;;;;;5.95;2.15;;;;;;;;;;5020763;28;20014;-71
2022/01/12 14:30:33;;;;;;;5.60;1.67;;;;;;;;;;5003661;28;20049;-71
2022/01/12 14:32:59;;;;;;;5.35;1.60;;;;;;;;;;5020372;28;20018;-71
2022/01/12 14:35:25;;;;;;;9.63;1.88;;;;;;;;;;5020163;28;20245;-71
2022/01/12 14:37:52;;;;;;;7.53;1.92;;;;;;;;;;5020179;28;20082;-73
2022/01/12 14:40:21;;;;;;;11.48;3.08;;;;;;;;;;5020412;28;20036;-73
2022/01/12 14:42:50;;;;;;;3.85;1.15;;;;;;;;;;5020206;28;20030;-72
2022/01/12 14:45:19;;;;;;;6.30;1.55;;;;;;;;;;5019823;28;20022;-72
2022/01/12 14:47:44;;;;;;;6.78;1.65;;;;;;;;;;5035351;28;20022;-72
2022/01/12 14:50:10;;;;;;;3.38;1.60;;;;;;;;;;5019945;28;20026;-72
2022/01/12 14:52:36;;;;;;;7.95;1.75;;;;;;;;;;5020104;28;20022;-72
2022/01/12 14:55:03;;;;;;;7.40;1.27;;;;;;;;;;5020280;28;20014;-71
2022/01/12 14:57:29;;;;;;;8.38;1.55;;;;;;;;;;5003182;28;20017;-72
2022/01/12 15:00:01;;;;;;;6.88;1.60;;;;;;;;;;5020017;28;20038;-72
2022/01/12 15:02:26;;;;;;;11.43;1.67;;;;;;;;;;5019883;28;20006;-71
2022/01/12 15:04:52;;;;;;;2.35;0.93;;;;;;;;;;5020092;28;20065;-72
2022/01/12 15:07:18;;;;;;;3.75;1.35;;;;;;;;;;5019171;28;20041;-72
2022/01/12 15:09:44;;;;;;;3.67;1.17;;;;;;;;;;5019668;28;20014;-72
2022/01/12 15:12:15;;;;;;;5.55;1.30;;;;;;;;;;5019900;28;20018;-72
2022/01/12 15:17:07;;;;;;;1.92;0.85;;;;;;;;;;5019692;28;20046;-71
2022/01/12 15:19:33;;;;;;;2.83;1.00;;;;;;;;;;5019792;28;20014;-71
2022/01/12 15:21:59;;;;;;;3.85;0.60;;;;;;;;;;5035115;28;20088;-71
2022/01/12 15:24:24;;;;;;;2.13;0.88;;;;;;;;;;5002721;28;20027;-72
2022/01/12 15:26:50;;;;;;;0.73;0.47;;;;;;;;;;5019581;28;20030;-72
2022/01/12 15:29:15;;;;;;;5.15;0.95;;;;;;;;;;5019614;28;20011;-72
2022/01/12 15:31:41;;;;;;;3.08;0.80;;;;;;;;;;5002317;28;20022;-72
2022/01/12 15:34:06;;;;;;;4.13;0.88;;;;;;;;;;5019324;28;20074;-71
2022/01/12 15:36:32;;;;;;;3.33;0.90;;;;;;;;;;5019472;28;20033;-72
2022/01/12 15:38:57;;;;;;;1.35;0.82;;;;;;;;;;5019419;28;20018;-72
2022/01/12 15:41:23;;;;;;;3.35;1.00;;;;;;;;;;5018969;28;20022;-72
2022/01/12 15:43:48;;;;;;;7.40;1.00;;;;;;;;;;5002034;28;20037;-73
2022/01/12 15:46:15;;;;;;;1.70;0.80;;;;;;;;;;5019023;28;20026;-72
2022/01/12 15:48:40;;;;;;;5.63;1.00;;;;;;;;;;5019225;28;20026;-71
2022/01/12 15:51:07;;;;;;;5.75;0.90;;;;;;;;;;5019022;28;20053;-72
2022/01/12 15:53:33;;;;;;;4.88;1.40;;;;;;;;;;5019153;28;20015;-72
2022/01/12 15:55:58;;;;;;;3.30;0.90;;;;;;;;;;5018281;28;20159;-73
2022/01/12 15:58:24;;;;;;;3.65;0.98;;;;;;;;;;5018735;28;20010;-73
2022/01/12 16:00:50;;;;;;;6.57;1.23;;;;;;;;;;5018527;28;20026;-72